createdAt,value
2023-04-02T00:01:20.275Z,8.30
2023-04-02T00:04:23.117Z,8.60
2023-04-02T00:07:19.600Z,9.00
2023-04-02T00:09:50.588Z,9.30
2023-04-02T00:12:23.445Z,9.10
2023-04-02T00:14:59.468Z,8.90
2023-04-02T00:17:30.999Z,8.70
2023-04-02T00:20:10.115Z,8.50
2023-04-02T00:22:48.151Z,8.50
2023-04-02T00:25:21.771Z,8.40
2023-04-02T00:30:39.145Z,8.20
2023-04-02T00:33:19.261Z,8.30
2023-04-02T00:35:56.321Z,8.50
2023-04-02T00:38:32.869Z,8.60
2023-04-02T00:41:09.935Z,8.70
2023-04-02T00:43:45.413Z,8.70
2023-04-02T00:46:20.161Z,8.90
2023-04-02T00:48:57.266Z,9.00
2023-04-02T00:51:36.183Z,9.20
2023-04-02T00:54:16.828Z,9.10
2023-04-02T00:56:50.116Z,9.20
2023-04-02T00:59:26.227Z,9.20
2023-04-02T01:02:02.823Z,9.30
2023-04-02T01:04:37.552Z,9.20
2023-04-02T01:07:14.280Z,9.00
2023-04-02T01:09:58.688Z,8.80
2023-04-02T01:12:48.373Z,8.30
2023-04-02T01:15:24.742Z,8.10
2023-04-02T01:18:27.564Z,8.20
2023-04-02T01:21:14.833Z,8.40
2023-04-02T01:24:03.601Z,8.20
2023-04-02T01:26:46.743Z,8.20
2023-04-02T01:29:24.172Z,8.20
2023-04-02T01:31:58.724Z,8.10
2023-04-02T01:34:32.062Z,8.30
2023-04-02T01:37:35.221Z,8.30
2023-04-02T01:40:29.741Z,8.30
2023-04-02T01:43:09.706Z,8.20
2023-04-02T01:45:43.276Z,8.30
2023-04-02T01:48:20.682Z,8.40
2023-04-02T01:50:55.900Z,8.40
2023-04-02T01:53:30.458Z,8.30
2023-04-02T01:56:03.543Z,8.30
2023-04-02T01:58:36.495Z,8.30
2023-04-02T02:01:16.232Z,8.00
2023-04-02T02:03:49.191Z,7.80
2023-04-02T02:06:22.237Z,7.60
2023-04-02T02:08:56.459Z,7.50
2023-04-02T02:11:30.018Z,7.50
2023-04-02T02:14:02.749Z,7.20
2023-04-02T02:16:43.546Z,7.20
2023-04-02T02:19:28.043Z,7.20
2023-04-02T02:22:06.569Z,7.10
2023-04-02T02:33:29.886Z,6.90
2023-04-02T02:36:07.793Z,6.90
2023-04-02T02:41:29.597Z,6.60
2023-04-02T02:44:06.184Z,6.40
2023-04-02T02:46:39.113Z,6.30
2023-04-02T02:49:22.279Z,6.30
2023-04-02T02:52:02.050Z,6.10
2023-04-02T02:54:36.204Z,6.10
2023-04-02T02:57:11.328Z,6.00
2023-04-02T02:59:44.072Z,5.90
2023-04-02T03:02:16.368Z,5.90
2023-04-02T03:04:58.409Z,5.80
2023-04-02T03:07:32.621Z,5.70
2023-04-02T03:10:13.648Z,5.70
2023-04-02T03:12:50.474Z,5.70
2023-04-02T03:15:31.110Z,5.70
2023-04-02T03:18:07.886Z,5.60
2023-04-02T03:20:47.355Z,5.60
2023-04-02T03:23:25.361Z,5.50
2023-04-02T03:26:05.298Z,5.50
2023-04-02T03:28:41.873Z,5.50
2023-04-02T03:31:18.536Z,5.50
2023-04-02T03:34:01.473Z,5.40
2023-04-02T03:36:46.628Z,5.40
2023-04-02T03:39:25.771Z,5.30
2023-04-02T03:42:00.824Z,5.30
2023-04-02T03:44:37.283Z,5.20
2023-04-02T03:47:21.119Z,5.20
2023-04-02T03:50:08.754Z,5.20
2023-04-02T03:52:43.748Z,5.10
2023-04-02T03:55:33.400Z,5.10
2023-04-02T03:58:10.494Z,5.00
2023-04-02T04:00:47.690Z,5.00
2023-04-02T04:03:23.881Z,4.90
2023-04-02T04:05:59.410Z,4.90
2023-04-02T04:08:39.221Z,4.90
2023-04-02T04:11:17.290Z,4.90
2023-04-02T04:13:56.077Z,4.90
2023-04-02T04:16:33.187Z,4.80
2023-04-02T04:19:09.683Z,4.70
2023-04-02T04:21:41.563Z,4.80
2023-04-02T04:24:24.031Z,4.70
2023-04-02T04:27:05.270Z,4.70
2023-04-02T04:29:46.790Z,4.70
2023-04-02T04:32:33.391Z,4.70
2023-04-02T04:35:12.649Z,4.60
2023-04-02T04:37:50.590Z,4.60
2023-04-02T04:40:28.027Z,4.60
2023-04-02T04:43:04.035Z,4.50
2023-04-02T04:45:44.961Z,4.50
2023-04-02T04:48:22.928Z,4.50
2023-04-02T04:51:01.163Z,4.50
2023-04-02T04:56:36.313Z,4.40
2023-04-02T04:59:16.257Z,4.40
2023-04-02T05:01:52.796Z,4.50
2023-04-02T05:04:29.146Z,4.50
2023-04-02T05:07:08.824Z,4.60
2023-04-02T05:09:45.341Z,4.60
2023-04-02T05:12:25.765Z,4.60
2023-04-02T05:15:02.261Z,4.60
2023-04-02T05:17:41.101Z,4.50
2023-04-02T05:20:21.688Z,4.50
2023-04-02T05:22:58.727Z,4.40
2023-04-02T05:25:35.386Z,4.40
2023-04-02T05:28:15.197Z,4.40
2023-04-02T05:30:54.947Z,4.40
2023-04-02T05:33:30.628Z,4.40
2023-04-02T05:36:05.456Z,4.40
2023-04-02T05:38:40.593Z,4.40
2023-04-02T05:41:21.789Z,4.40
2023-04-02T05:44:03.124Z,4.30
2023-04-02T05:46:39.039Z,4.30
2023-04-02T05:52:39.426Z,4.20
2023-04-02T05:55:34.385Z,4.20
2023-04-02T06:09:46.894Z,3.90
2023-04-02T06:12:43.182Z,4.00
2023-04-02T06:15:17.696Z,4.00
2023-04-02T06:17:51.786Z,4.00
2023-04-02T06:20:24.312Z,4.00
2023-04-02T06:23:02.840Z,4.10
2023-04-02T06:25:38.835Z,4.10
2023-04-02T06:28:16.945Z,4.10
2023-04-02T06:30:50.366Z,4.10
2023-04-02T06:33:22.997Z,4.10
2023-04-02T06:35:56.001Z,4.10
2023-04-02T06:38:36.322Z,4.00
2023-04-02T06:41:16.775Z,4.10
2023-04-02T06:43:53.200Z,4.10
2023-04-02T06:46:30.330Z,4.00
2023-04-02T06:49:08.978Z,3.90
2023-04-02T07:02:34.977Z,3.70
2023-04-02T07:13:26.608Z,3.60
2023-04-02T07:15:58.946Z,3.60
2023-04-02T07:18:35.856Z,3.50
2023-04-02T07:21:08.433Z,3.50
2023-04-02T07:23:40.132Z,3.60
2023-04-02T07:26:12.806Z,3.60
2023-04-02T07:28:44.607Z,3.50
2023-04-02T07:31:21.112Z,3.50
2023-04-02T07:33:59.033Z,3.50
2023-04-02T07:36:32.428Z,3.50
2023-04-02T07:39:04.198Z,3.50
2023-04-02T07:41:37.233Z,3.50
2023-04-02T07:44:09.797Z,3.50
2023-04-02T07:46:41.791Z,3.60
2023-04-02T07:49:16.977Z,3.60
2023-04-02T07:51:49.371Z,3.60
2023-04-02T07:54:21.438Z,3.60
2023-04-02T07:56:58.420Z,3.60
2023-04-02T07:59:29.843Z,3.60
2023-04-02T08:02:01.647Z,3.60
2023-04-02T08:04:37.716Z,3.60
2023-04-02T08:07:10.325Z,3.60
2023-04-02T08:09:41.783Z,3.60
2023-04-02T08:12:16.396Z,3.60
2023-04-02T08:14:48.271Z,3.60
2023-04-02T08:17:21.378Z,3.60
2023-04-02T08:19:57.610Z,3.60
2023-04-02T08:22:28.706Z,3.60
2023-04-02T08:25:00.764Z,3.60
2023-04-02T08:27:32.464Z,3.60
2023-04-02T08:30:04.664Z,3.70
2023-04-02T08:32:36.339Z,3.70
2023-04-02T08:35:17.869Z,3.70
2023-04-02T08:37:49.342Z,3.60
2023-04-02T08:40:27.119Z,3.50
2023-04-02T08:43:17.520Z,3.30
2023-04-02T08:46:00.340Z,3.20
2023-04-02T08:48:35.436Z,3.00
2023-04-02T08:51:11.932Z,2.90
2023-04-02T08:53:43.712Z,2.90
2023-04-02T08:56:23.824Z,2.90
2023-04-02T08:58:57.585Z,2.90
2023-04-02T09:01:40.224Z,2.90
2023-04-02T09:04:19.864Z,2.90
2023-04-02T09:06:55.224Z,2.80
2023-04-02T09:09:27.161Z,2.80
2023-04-02T09:12:02.783Z,2.80
2023-04-02T09:14:43.702Z,2.90
2023-04-02T09:17:22.950Z,2.80
2023-04-02T09:19:59.775Z,2.80
2023-04-02T09:22:36.739Z,2.70
2023-04-02T09:25:16.959Z,2.70
2023-04-02T09:27:52.466Z,2.70
2023-04-02T09:30:38.314Z,2.70
2023-04-02T09:33:10.876Z,2.70
2023-04-02T09:35:59.108Z,2.70
2023-04-02T09:38:36.591Z,2.70
2023-04-02T09:41:09.319Z,2.70
2023-04-02T09:43:42.228Z,2.70
2023-04-02T09:46:24.110Z,2.60
2023-04-02T09:48:59.804Z,2.60
2023-04-02T09:51:35.820Z,2.50
2023-04-02T09:54:24.640Z,2.50
2023-04-02T09:57:08.879Z,2.50
2023-04-02T10:02:32.410Z,2.50
2023-04-02T10:05:08.639Z,2.60
2023-04-02T10:07:44.638Z,2.60
2023-04-02T10:10:30.588Z,2.70
2023-04-02T10:13:05.782Z,2.70
2023-04-02T10:15:41.705Z,2.60
2023-04-02T10:18:19.845Z,2.60
2023-04-02T10:20:55.189Z,2.60
2023-04-02T10:23:31.743Z,2.60
2023-04-02T10:26:21.350Z,2.70
2023-04-02T10:29:08.110Z,2.70
2023-04-02T10:31:50.768Z,2.70
2023-04-02T10:34:28.309Z,2.70
2023-04-02T10:37:04.582Z,2.70
2023-04-02T10:39:46.256Z,2.70
2023-04-02T10:42:30.150Z,2.80
2023-04-02T10:45:05.628Z,2.80
2023-04-02T10:47:42.153Z,2.80
2023-04-02T10:50:30.668Z,2.80
2023-04-02T10:53:12.124Z,2.80
2023-04-02T10:55:48.382Z,2.80
2023-04-02T10:58:27.675Z,2.90
2023-04-02T11:01:03.587Z,2.80
2023-04-02T11:03:41.155Z,2.80
2023-04-02T11:06:31.378Z,2.80
2023-04-02T11:09:07.094Z,2.70
2023-04-02T11:11:43.997Z,2.70
2023-04-02T11:14:21.232Z,2.70
2023-04-02T11:16:54.661Z,2.80
2023-04-02T11:19:29.166Z,2.80
2023-04-02T11:22:04.422Z,2.80
2023-04-02T11:24:46.586Z,2.90
2023-04-02T11:27:25.787Z,2.90
2023-04-02T11:30:06.425Z,2.90
2023-04-02T11:32:44.217Z,2.90
2023-04-02T11:35:39.992Z,2.90
2023-04-02T11:38:48.122Z,2.90
2023-04-02T11:41:57.429Z,2.90
2023-04-02T11:44:29.226Z,2.90
2023-04-02T11:47:24.617Z,2.90
2023-04-02T11:50:04.156Z,2.90
2023-04-02T11:52:55.137Z,3.00
2023-04-02T11:55:32.599Z,3.00
2023-04-02T11:58:33.763Z,2.90
2023-04-02T12:01:34.924Z,2.90
2023-04-02T12:04:40.721Z,2.90
2023-04-02T12:07:38.147Z,2.80
2023-04-02T12:10:18.906Z,2.80
2023-04-02T12:12:51.100Z,2.80
2023-04-02T12:15:46.681Z,2.70
2023-04-02T12:18:20.907Z,2.70
2023-04-02T12:20:57.488Z,2.70
2023-04-02T12:23:32.841Z,2.70
2023-04-02T12:26:08.062Z,2.70
2023-04-02T12:28:43.497Z,2.70
2023-04-02T12:31:20.150Z,2.60
2023-04-02T12:33:56.732Z,2.60
2023-04-02T12:36:30.624Z,2.70
2023-04-02T12:39:03.157Z,2.70
2023-04-02T12:41:36.767Z,2.60
2023-04-02T12:44:12.984Z,2.60
2023-04-02T12:46:44.619Z,2.60
2023-04-02T12:49:39.704Z,2.60
2023-04-02T12:52:17.142Z,2.60
2023-04-02T12:54:50.119Z,2.60
2023-04-02T12:57:37.257Z,2.70
2023-04-02T13:00:34.157Z,2.70
2023-04-02T13:03:21.179Z,2.70
2023-04-02T13:05:58.905Z,2.80
2023-04-02T13:08:41.135Z,2.80
2023-04-02T13:11:13.876Z,2.80
2023-04-02T13:13:47.540Z,2.80
2023-04-02T13:16:36.928Z,2.80
2023-04-02T13:19:34.665Z,2.90
2023-04-02T13:22:08.321Z,2.90
2023-04-02T13:24:43.137Z,2.90
2023-04-02T13:27:14.896Z,2.90
2023-04-02T13:29:46.574Z,3.00
2023-04-02T13:32:18.076Z,3.10
2023-04-02T13:34:49.588Z,3.00
2023-04-02T13:37:21.029Z,3.00
2023-04-02T13:39:54.186Z,3.00
2023-04-02T13:42:25.244Z,3.10
2023-04-02T13:44:57.163Z,3.10
2023-04-02T13:47:28.493Z,3.00
2023-04-02T13:49:59.820Z,3.00
2023-04-02T13:52:30.787Z,3.00
2023-04-02T13:55:04.845Z,2.90
2023-04-02T13:57:36.931Z,2.90
2023-04-02T14:00:09.698Z,2.90
2023-04-02T14:02:45.725Z,3.00
2023-04-02T14:05:29.628Z,3.00
2023-04-02T14:08:10.872Z,2.90
2023-04-02T14:10:57.910Z,2.90
2023-04-02T14:13:43.474Z,2.90
2023-04-02T14:16:30.496Z,2.90
2023-04-02T14:19:23.283Z,2.90
2023-04-02T14:22:05.769Z,2.80
2023-04-02T14:24:50.486Z,2.70
2023-04-02T14:27:40.499Z,2.70
2023-04-02T14:30:19.545Z,2.60
2023-04-02T14:33:02.407Z,2.50
2023-04-02T14:35:39.930Z,2.30
2023-04-02T14:38:17.330Z,2.20
2023-04-02T14:40:52.878Z,2.20
2023-04-02T14:43:29.549Z,2.10
2023-04-02T14:46:06.297Z,2.10
2023-04-02T14:48:50.383Z,2.10
2023-04-02T14:51:29.520Z,2.10
2023-04-02T14:54:10.026Z,2.20
2023-04-02T14:56:48.401Z,2.20
2023-04-02T14:59:38.733Z,2.30
2023-04-02T15:02:21.268Z,2.30
2023-04-02T15:05:01.433Z,2.40
2023-04-02T15:07:40.407Z,2.40
2023-04-02T15:10:23.873Z,2.50
2023-04-02T15:12:56.789Z,2.50
2023-04-02T15:15:40.944Z,2.60
2023-04-02T15:18:18.140Z,2.70
2023-04-02T15:20:58.645Z,2.70
2023-04-02T15:23:49.751Z,2.60
2023-04-02T15:26:28.810Z,2.70
2023-04-02T15:29:09.246Z,2.70
2023-04-02T15:31:54.046Z,2.70
2023-04-02T15:34:30.580Z,2.70
2023-04-02T15:37:10.831Z,2.80
2023-04-02T15:40:05.802Z,2.90
2023-04-02T15:42:43.360Z,3.00
2023-04-02T15:45:28.741Z,3.10
2023-04-02T15:48:43.982Z,3.00
2023-04-02T15:51:38.567Z,3.00
2023-04-02T15:54:23.354Z,3.10
2023-04-02T15:57:04.146Z,3.20
2023-04-02T15:59:48.811Z,3.20
2023-04-02T16:02:36.531Z,3.10
2023-04-02T16:05:17.233Z,3.30
2023-04-02T16:08:13.201Z,3.20
2023-04-02T16:10:46.429Z,3.30
2023-04-02T16:13:33.142Z,3.50
2023-04-02T16:16:10.004Z,3.50
2023-04-02T16:18:51.173Z,3.30
2023-04-02T16:21:26.672Z,3.30
2023-04-02T16:24:01.086Z,3.40
2023-04-02T16:26:57.908Z,3.50
2023-04-02T16:29:55.842Z,3.50
2023-04-02T16:32:54.911Z,3.60
2023-04-02T16:35:43.170Z,3.70
2023-04-02T16:38:24.222Z,3.40
2023-04-02T16:41:09.069Z,3.50
2023-04-02T16:43:53.783Z,3.60
2023-04-02T16:46:39.303Z,3.60
2023-04-02T16:49:25.134Z,3.60
2023-04-02T16:52:06.044Z,3.60
2023-04-02T16:54:49.236Z,3.80
2023-04-02T16:57:35.005Z,4.00
2023-04-02T17:00:15.869Z,3.90
2023-04-02T17:03:04.444Z,3.90
2023-04-02T17:05:38.016Z,4.00
2023-04-02T17:08:25.663Z,4.00
2023-04-02T17:11:03.089Z,4.00
2023-04-02T17:13:43.969Z,4.10
2023-04-02T17:16:23.273Z,4.20
2023-04-02T17:18:59.798Z,4.40
2023-04-02T17:21:33.035Z,4.30
2023-04-02T17:24:10.376Z,4.20
2023-04-02T17:26:44.915Z,4.20
2023-04-02T17:29:27.631Z,4.10
2023-04-02T17:32:02.152Z,4.10
2023-04-02T17:34:34.325Z,4.20
2023-04-02T17:37:23.242Z,4.30
2023-04-02T17:40:05.880Z,4.10
2023-04-02T17:42:47.615Z,4.00
2023-04-02T17:45:25.961Z,4.00
2023-04-02T17:48:05.390Z,4.10
2023-04-02T17:51:11.928Z,4.10
2023-04-02T17:53:53.388Z,4.00
2023-04-02T17:56:38.939Z,4.30
2023-04-02T17:59:40.415Z,4.30
2023-04-02T18:02:26.942Z,4.40
2023-04-02T18:05:09.744Z,4.40
2023-04-02T18:07:48.476Z,4.60
2023-04-02T18:10:26.181Z,4.90
2023-04-02T18:13:06.707Z,4.80
2023-04-02T18:15:52.281Z,4.80
2023-04-02T18:18:48.626Z,5.00
2023-04-02T18:21:28.478Z,5.20
2023-04-02T18:24:17.368Z,5.30
2023-04-02T18:26:58.074Z,5.40
2023-04-02T18:29:40.116Z,5.50
2023-04-02T18:32:32.370Z,5.50
2023-04-02T18:35:16.719Z,5.40
2023-04-02T18:38:08.610Z,5.40
2023-04-02T18:40:50.470Z,5.30
2023-04-02T18:43:35.029Z,5.70
2023-04-02T18:46:14.590Z,6.10
2023-04-02T18:48:56.156Z,5.60
2023-04-02T18:51:32.052Z,5.60
2023-04-02T18:54:14.322Z,6.00
2023-04-02T18:56:46.353Z,6.30
2023-04-02T18:59:36.179Z,6.20
2023-04-02T19:02:33.441Z,6.10
2023-04-02T19:05:08.584Z,6.10
2023-04-02T19:07:45.551Z,6.30
2023-04-02T19:10:31.153Z,6.40
2023-04-02T19:13:02.608Z,6.50
2023-04-02T19:15:45.232Z,6.50
2023-04-02T19:18:26.680Z,6.50
2023-04-02T19:21:02.207Z,6.40
2023-04-02T19:23:50.160Z,6.10
2023-04-02T19:26:26.048Z,6.20
2023-04-02T19:29:07.180Z,6.40
2023-04-02T19:31:53.165Z,6.30
2023-04-02T19:34:31.905Z,6.30
2023-04-02T19:37:08.856Z,6.60
2023-04-02T19:40:21.863Z,6.90
2023-04-02T19:42:58.268Z,6.70
2023-04-02T19:45:36.633Z,6.80
2023-04-02T19:48:16.047Z,6.90
2023-04-02T19:50:47.736Z,6.90
2023-04-02T19:53:19.624Z,6.90
2023-04-02T19:55:51.180Z,7.10
2023-04-02T19:58:30.783Z,7.10
2023-04-02T20:01:02.726Z,7.20
2023-04-02T20:03:34.478Z,7.30
2023-04-02T20:06:06.061Z,7.30
2023-04-02T20:08:37.787Z,7.20
2023-04-02T20:11:09.740Z,7.20
2023-04-02T20:13:44.234Z,7.40
2023-04-02T20:16:16.461Z,7.60
2023-04-02T20:18:47.768Z,7.80
2023-04-02T20:21:18.789Z,7.80
2023-04-02T20:23:50.763Z,8.00
2023-04-02T20:26:38.543Z,8.20
2023-04-02T20:29:13.257Z,8.40
2023-04-02T20:31:44.397Z,8.60
2023-04-02T20:34:16.442Z,8.70
2023-04-02T20:36:59.845Z,8.60
2023-04-02T20:39:30.880Z,8.50
2023-04-02T20:42:04.133Z,8.50
2023-04-02T20:44:37.964Z,8.50
2023-04-02T20:47:10.262Z,8.50
2023-04-02T20:49:41.723Z,8.50
2023-04-02T20:52:13.157Z,8.30
2023-04-02T20:54:44.580Z,8.30
2023-04-02T20:57:16.052Z,8.50
2023-04-02T20:59:49.996Z,8.40
2023-04-02T21:02:22.388Z,8.30
2023-04-02T21:04:54.233Z,8.10
2023-04-02T21:07:25.485Z,8.50
2023-04-02T21:09:57.077Z,8.80
2023-04-02T21:12:29.769Z,9.30
2023-04-02T21:15:03.670Z,9.50
2023-04-02T21:17:35.297Z,9.50
2023-04-02T21:20:07.567Z,8.90
2023-04-02T21:22:38.543Z,8.50
2023-04-02T21:25:10.305Z,8.20
2023-04-02T21:27:41.270Z,8.20
2023-04-02T21:30:15.541Z,8.20
2023-04-02T21:32:46.286Z,8.30
2023-04-02T21:35:17.721Z,8.30
2023-04-02T21:37:48.620Z,8.60
2023-04-02T21:40:19.396Z,9.00
2023-04-02T21:42:50.389Z,9.30
2023-04-02T21:45:23.026Z,9.40
2023-04-02T21:47:53.749Z,9.70
2023-04-02T21:50:24.729Z,10.00
2023-04-02T21:52:56.378Z,9.90
2023-04-02T21:55:27.353Z,9.50
2023-04-02T21:57:58.055Z,9.80
2023-04-02T22:00:30.409Z,9.90
2023-04-02T22:03:02.719Z,9.80
2023-04-02T22:05:34.372Z,9.40
2023-04-02T22:08:05.941Z,9.00
2023-04-02T22:10:39.173Z,9.10
2023-04-02T22:13:10.922Z,8.70
2023-04-02T22:15:44.924Z,8.90
2023-04-02T22:18:16.557Z,9.00
2023-04-02T22:20:47.400Z,9.40
2023-04-02T22:23:19.470Z,9.60
2023-04-02T22:25:50.258Z,9.80
2023-04-02T22:28:21.865Z,10.00
2023-04-02T22:30:54.482Z,10.30
2023-04-02T22:33:25.361Z,10.30
2023-04-02T22:35:57.457Z,10.00
2023-04-02T22:38:29.129Z,9.70
2023-04-02T22:41:09.715Z,9.80
2023-04-02T22:43:40.871Z,9.20
2023-04-02T22:46:14.657Z,9.10
2023-04-02T22:48:45.893Z,8.80
2023-04-02T22:51:18.492Z,8.50
2023-04-02T22:53:49.961Z,8.50
2023-04-02T22:56:22.960Z,8.30
2023-04-02T22:58:53.710Z,8.60
2023-04-02T23:01:29.237Z,9.00
2023-04-02T23:04:00.489Z,8.80
2023-04-02T23:06:31.691Z,8.50
2023-04-02T23:09:02.887Z,8.60
2023-04-02T23:11:33.744Z,8.70
2023-04-02T23:14:04.480Z,8.40
2023-04-02T23:16:37.147Z,8.40
2023-04-02T23:19:07.919Z,8.10
2023-04-02T23:21:39.358Z,8.30
2023-04-02T23:24:10.397Z,8.50
2023-04-02T23:26:41.183Z,8.50
2023-04-02T23:29:14.359Z,8.50
2023-04-02T23:31:47.035Z,8.60
2023-04-02T23:34:18.106Z,8.90
2023-04-02T23:36:49.091Z,9.20
2023-04-02T23:39:21.215Z,9.00
2023-04-02T23:41:52.895Z,8.90
2023-04-02T23:44:23.676Z,8.80
2023-04-02T23:46:57.351Z,9.30
2023-04-02T23:49:28.193Z,9.40
2023-04-02T23:51:59.281Z,9.80
2023-04-02T23:54:30.472Z,9.60
2023-04-02T23:57:01.224Z,9.80
2023-04-02T23:59:32.418Z,9.90
